Time;durP1;ratioP1;P1;durP2;ratioP2;P2;SDS_P1;SDS_P2;PMS_P1;PMS_P2;Temp;Humidity;BMP_temperature;BMP_pressure;BME280_temperature;BME280_humidity;BME280_pressure;Samples;Min_cycle;Max_cycle;Signal;HPM_P1;HPM_P2
2022/05/09 00:00:06;;;;;;;15.88;5.55;;;8.80;99.90;;;;;;5009033;28;20029;-74
2022/05/09 00:02:32;;;;;;;19.08;5.22;;;8.80;99.90;;;;;;4997612;28;20058;-73
2022/05/09 00:04:58;;;;;;;16.10;5.15;;;8.80;99.90;;;;;;4996810;28;20037;-74
2022/05/09 00:07:24;;;;;;;21.25;5.75;;;8.80;99.90;;;;;;4997072;28;20030;-73
2022/05/09 00:09:49;;;;;;;24.27;5.88;;;8.80;99.90;;;;;;4979845;28;20324;-76
2022/05/09 00:12:15;;;;;;;19.70;5.18;;;8.80;99.90;;;;;;4997234;28;20105;-76
2022/05/09 00:14:41;;;;;;;24.70;6.38;;;8.80;99.90;;;;;;4996701;28;20050;-76
2022/05/09 00:17:07;;;;;;;32.28;6.20;;;8.70;99.90;;;;;;4996246;28;20037;-76
2022/05/09 00:19:32;;;;;;;30.40;7.03;;;8.70;99.90;;;;;;4996095;28;20084;-76
2022/05/09 00:21:58;;;;;;;22.55;5.88;;;8.70;99.90;;;;;;4978728;28;20027;-76
2022/05/09 00:24:24;;;;;;;18.33;5.05;;;8.70;99.90;;;;;;4995611;28;20045;-75
2022/05/09 00:26:52;;;;;;;21.15;6.18;;;8.70;99.90;;;;;;4961524;28;20495;-76
2022/05/09 00:29:20;;;;;;;25.42;6.72;;;8.70;99.90;;;;;;4976370;28;20026;-76
2022/05/09 00:31:47;;;;;;;26.52;5.50;;;8.70;99.90;;;;;;4977318;28;20090;-76
2022/05/09 00:34:17;;;;;;;16.45;6.50;;;8.70;99.90;;;;;;5006004;28;20133;-76
2022/05/09 00:36:45;;;;;;;14.00;6.65;;;8.70;99.90;;;;;;4995680;28;20511;-76
2022/05/09 00:39:11;;;;;;;17.35;5.75;;;8.70;99.90;;;;;;4995660;28;20068;-76
2022/05/09 00:41:37;;;;;;;19.77;5.25;;;8.70;99.90;;;;;;4995871;28;20026;-76
2022/05/09 00:44:10;;;;;;;18.60;6.47;;;8.70;99.90;;;;;;4995350;28;20019;-75
2022/05/09 00:46:37;;;;;;;20.38;5.90;;;8.70;99.90;;;;;;4995997;28;20523;-76
2022/05/09 00:49:14;;;;;;;23.67;6.65;;;8.70;99.90;;;;;;4977310;28;20100;-75
2022/05/09 00:51:43;;;;;;;13.15;5.72;;;8.70;99.90;;;;;;4995461;28;20022;-76
2022/05/09 00:54:09;;;;;;;20.15;7.07;;;8.70;99.90;;;;;;5010063;28;20033;-74
2022/05/09 00:56:52;;;;;;;17.00;6.55;;;8.70;99.90;;;;;;5013637;28;20026;-77
2022/05/09 00:59:19;;;;;;;21.90;6.57;;;8.60;99.90;;;;;;4996793;28;20026;-74
2022/05/09 01:01:47;;;;;;;15.00;5.75;;;8.60;99.90;;;;;;5014594;28;20513;-73
2022/05/09 01:04:21;;;;;;;18.27;6.10;;;8.60;99.90;;;;;;5014425;28;20057;-73
2022/05/09 01:06:47;;;;;;;25.88;6.43;;;8.60;99.90;;;;;;5014823;28;20470;-74
2022/05/09 01:09:12;;;;;;;25.52;7.78;;;8.60;99.90;;;;;;5013910;28;20034;-74
2022/05/09 01:11:42;;;;;;;21.75;6.50;;;8.60;99.90;;;;;;5012571;28;20037;-73
2022/05/09 01:14:13;;;;;;;21.52;6.60;;;8.60;99.90;;;;;;5013659;28;20026;-73
2022/05/09 01:16:39;;;;;;;25.95;7.18;;;8.50;99.90;;;;;;5014385;28;20110;-73
2022/05/09 01:19:23;;;;;;;17.90;6.65;;;8.50;99.90;;;;;;5014228;28;20447;-72
2022/05/09 01:21:50;;;;;;;24.98;6.75;;;8.50;99.90;;;;;;5014396;28;20026;-73
2022/05/09 01:24:20;;;;;;;20.20;7.55;;;8.40;99.90;;;;;;5014427;28;20026;-73
2022/05/09 01:26:46;;;;;;;23.98;7.05;;;8.40;99.90;;;;;;5014128;28;20030;-73
2022/05/09 01:29:29;;;;;;;19.17;7.45;;;8.30;99.90;;;;;;5014153;28;20393;-73
2022/05/09 01:31:57;;;;;;;23.25;7.78;;;8.30;99.90;;;;;;4996896;28;20025;-72
2022/05/09 01:34:25;;;;;;;24.50;7.20;;;8.30;99.90;;;;;;5014098;28;20088;-73
2022/05/09 01:37:00;;;;;;;25.88;7.35;;;8.30;99.90;;;;;;5014780;28;20036;-73
2022/05/09 01:39:26;;;;;;;21.90;6.82;;;8.30;99.90;;;;;;5014303;28;20463;-73
2022/05/09 01:41:52;;;;;;;23.88;5.95;;;8.30;99.90;;;;;;5016325;28;20109;-72
2022/05/09 01:44:18;;;;;;;22.80;7.15;;;8.20;99.90;;;;;;5019660;28;20033;-72
2022/05/09 01:49:31;;;;;;;31.20;7.70;;;8.20;99.90;;;;;;5015119;28;20375;-73
2022/05/09 01:52:03;;;;;;;30.08;7.80;;;8.20;99.90;;;;;;5014076;28;20071;-72
2022/05/09 01:54:29;;;;;;;23.77;9.10;;;8.10;99.90;;;;;;5013477;28;20026;-72
2022/05/09 01:56:55;;;;;;;22.20;7.18;;;8.10;99.90;;;;;;4995945;28;20022;-72
2022/05/09 01:59:21;;;;;;;19.33;7.15;;;8.10;99.90;;;;;;5013653;28;20045;-73
2022/05/09 02:01:55;;;;;;;22.05;7.05;;;8.10;99.90;;;;;;5013083;28;20026;-73
2022/05/09 02:04:22;;;;;;;26.42;8.18;;;8.10;99.90;;;;;;5013492;28;20025;-73
2022/05/09 02:06:48;;;;;;;23.35;8.00;;;8.00;99.90;;;;;;4995297;28;20380;-73
2022/05/09 02:09:13;;;;;;;26.30;8.20;;;8.00;99.90;;;;;;5013590;28;20033;-73
2022/05/09 02:11:39;;;;;;;25.35;8.43;;;8.00;99.90;;;;;;5013659;28;20038;-72
2022/05/09 02:14:05;;;;;;;21.88;7.82;;;8.00;99.90;;;;;;5012943;28;20026;-73
2022/05/09 02:16:31;;;;;;;30.10;10.52;;;8.00;99.90;;;;;;5013325;28;20029;-72
2022/05/09 02:18:57;;;;;;;22.63;8.00;;;8.00;99.90;;;;;;4995335;28;20060;-72
2022/05/09 02:21:23;;;;;;;31.67;9.07;;;8.00;99.90;;;;;;5013266;28;20419;-72
2022/05/09 02:23:49;;;;;;;21.33;7.43;;;8.00;99.90;;;;;;5012888;28;20026;-72
2022/05/09 02:26:15;;;;;;;21.08;7.85;;;8.00;99.90;;;;;;4995414;28;20487;-72
2022/05/09 02:28:41;;;;;;;28.30;9.32;;;7.90;99.90;;;;;;5012910;28;20487;-73
2022/05/09 02:31:07;;;;;;;25.23;8.18;;;7.90;99.90;;;;;;5013078;28;20033;-72
2022/05/09 02:33:32;;;;;;;24.67;9.10;;;7.90;99.90;;;;;;5012952;28;20030;-73
2022/05/09 02:35:58;;;;;;;25.60;8.60;;;7.90;99.90;;;;;;4995465;28;20068;-73
2022/05/09 02:38:24;;;;;;;24.40;8.98;;;7.90;99.90;;;;;;4995241;28;20395;-73
2022/05/09 02:40:51;;;;;;;28.13;8.57;;;7.80;99.90;;;;;;5013560;28;20306;-73
2022/05/09 02:43:17;;;;;;;29.48;9.20;;;7.90;99.90;;;;;;5012759;28;20569;-73
2022/05/09 02:45:43;;;;;;;20.50;8.32;;;7.80;99.90;;;;;;5012934;28;20026;-73
2022/05/09 02:48:10;;;;;;;21.63;8.02;;;7.80;99.90;;;;;;4995472;28;20456;-72
2022/05/09 02:50:36;;;;;;;23.67;9.15;;;7.80;99.90;;;;;;4995107;28;20491;-73
2022/05/09 02:53:02;;;;;;;27.23;8.65;;;7.70;99.90;;;;;;5012640;28;20113;-73
2022/05/09 02:55:28;;;;;;;24.25;9.07;;;7.70;99.90;;;;;;4995040;28;20033;-73
2022/05/09 02:57:54;;;;;;;24.40;8.68;;;7.70;99.90;;;;;;5012523;28;20088;-73
2022/05/09 03:00:25;;;;;;;25.48;8.63;;;7.70;99.90;;;;;;5012808;28;20443;-74
2022/05/09 03:05:38;;;;;;;26.92;9.00;;;7.70;99.90;;;;;;5013039;28;19912;-72
2022/05/09 03:08:04;;;;;;;21.88;7.97;;;7.70;99.90;;;;;;5012673;28;20105;-72
2022/05/09 03:10:31;;;;;;;31.23;8.45;;;7.70;99.90;;;;;;4994796;28;20037;-72
2022/05/09 03:12:59;;;;;;;28.77;9.65;;;7.70;99.90;;;;;;5012533;28;20056;-73
2022/05/09 03:15:29;;;;;;;29.33;10.00;;;7.70;99.90;;;;;;5015877;28;20022;-71
2022/05/09 03:17:54;;;;;;;20.58;8.60;;;7.60;99.90;;;;;;5015957;28;20029;-72
2022/05/09 03:20:21;;;;;;;21.30;8.85;;;7.60;99.90;;;;;;4998418;28;20399;-72
2022/05/09 03:22:46;;;;;;;32.65;9.40;;;7.60;99.90;;;;;;5016884;28;20484;-73
2022/05/09 03:25:12;;;;;;;23.83;9.45;;;7.60;99.90;;;;;;4998350;28;20120;-72
2022/05/09 03:27:38;;;;;;;25.52;10.30;;;7.60;99.90;;;;;;5016060;28;20443;-73
2022/05/09 03:30:07;;;;;;;27.67;9.75;;;7.60;99.90;;;;;;5015947;28;20034;-72
2022/05/09 03:32:34;;;;;;;22.52;8.32;;;7.60;99.90;;;;;;5016135;28;20025;-73
2022/05/09 03:34:59;;;;;;;19.25;7.88;;;7.60;99.90;;;;;;5016536;28;20034;-72
2022/05/09 03:37:25;;;;;;;30.05;8.70;;;7.60;99.90;;;;;;5015867;28;20534;-72
2022/05/09 03:39:50;;;;;;;24.45;9.70;;;7.50;99.90;;;;;;4998187;28;20415;-72
2022/05/09 03:42:16;;;;;;;36.85;8.70;;;7.60;99.90;;;;;;5016096;28;20030;-72
2022/05/09 03:44:41;;;;;;;23.45;9.35;;;7.50;99.90;;;;;;5015678;28;20048;-74
2022/05/09 03:47:07;;;;;;;19.90;9.25;;;7.50;99.90;;;;;;5016292;28;20075;-74
2022/05/09 03:49:33;;;;;;;18.73;8.60;;;7.50;99.90;;;;;;5015866;28;20026;-73
2022/05/09 03:51:59;;;;;;;23.70;9.02;;;7.50;99.90;;;;;;5016221;28;20096;-72
2022/05/09 03:54:25;;;;;;;23.08;9.18;;;7.50;99.90;;;;;;5046428;23;20045;-78
2022/05/09 03:56:50;;;;;;;20.85;9.07;;;7.50;99.90;;;;;;5024295;28;20163;-77
2022/05/09 03:59:16;;;;;;;27.10;8.68;;;7.50;99.90;;;;;;5042974;28;20037;-77
2022/05/09 04:01:42;;;;;;;25.30;9.73;;;7.50;99.90;;;;;;5025172;28;20036;-77
2022/05/09 04:04:07;;;;;;;30.98;8.98;;;7.50;99.90;;;;;;5043703;28;20079;-77
2022/05/09 04:06:33;;;;;;;24.10;8.52;;;7.50;99.90;;;;;;5052695;28;20030;-77
2022/05/09 04:08:59;;;;;;;26.27;8.38;;;7.50;99.90;;;;;;5027770;28;20021;-77
2022/05/09 04:11:24;;;;;;;20.85;8.70;;;7.50;99.90;;;;;;5027848;28;20032;-77
2022/05/09 04:13:50;;;;;;;19.33;8.77;;;7.50;99.90;;;;;;5043710;28;20048;-75
2022/05/09 04:19:00;;;;;;;29.85;9.55;;;7.50;99.90;;;;;;5042328;28;20033;-74
2022/05/09 04:21:26;;;;;;;22.17;8.20;;;7.50;99.90;;;;;;5041676;28;20025;-74
2022/05/09 04:23:58;;;;;;;24.17;7.57;;;7.50;99.90;;;;;;5041023;28;20022;-74
2022/05/09 04:26:25;;;;;;;22.63;8.70;;;7.50;99.90;;;;;;5041466;28;20412;-74
2022/05/09 04:28:51;;;;;;;18.63;8.65;;;7.50;99.90;;;;;;5040964;28;20025;-75
2022/05/09 04:31:17;;;;;;;25.77;8.27;;;7.50;99.90;;;;;;5040951;28;20049;-76
2022/05/09 04:33:42;;;;;;;21.25;8.15;;;7.50;99.90;;;;;;5041444;28;20032;-75
2022/05/09 04:36:08;;;;;;;17.55;8.55;;;7.60;99.90;;;;;;5043754;28;20030;-75
2022/05/09 04:38:38;;;;;;;19.42;8.13;;;7.60;99.90;;;;;;5046792;28;20021;-72
2022/05/09 04:41:04;;;;;;;20.13;8.05;;;7.70;99.90;;;;;;5024274;28;20022;-74
2022/05/09 04:43:31;;;;;;;14.77;7.63;;;7.80;99.90;;;;;;5043940;28;20028;-73
2022/05/09 04:46:00;;;;;;;18.30;7.28;;;7.90;99.90;;;;;;5043719;28;20030;-72
2022/05/09 04:48:27;;;;;;;17.55;7.82;;;7.90;99.90;;;;;;5028649;28;20058;-74
2022/05/09 04:50:52;;;;;;;28.85;9.18;;;7.90;99.90;;;;;;5044900;28;20022;-73
2022/05/09 04:53:18;;;;;;;14.35;7.70;;;7.90;99.90;;;;;;5024019;28;20022;-72
2022/05/09 04:55:44;;;;;;;14.18;7.43;;;7.90;99.90;;;;;;5022603;28;20044;-72
2022/05/09 04:58:15;;;;;;;15.52;6.85;;;8.00;99.90;;;;;;5040633;28;20079;-73
2022/05/09 05:00:42;;;;;;;20.05;7.80;;;8.20;99.90;;;;;;5040167;28;20104;-72
2022/05/09 05:03:07;;;;;;;18.58;7.53;;;8.20;99.90;;;;;;5039941;28;20025;-73
2022/05/09 05:05:33;;;;;;;17.23;7.50;;;8.20;99.90;;;;;;5022973;28;20048;-73
2022/05/09 05:08:00;;;;;;;13.25;6.60;;;8.20;99.90;;;;;;5023760;28;20040;-73
2022/05/09 05:10:27;;;;;;;16.58;6.68;;;8.30;99.90;;;;;;5023607;28;20029;-72
2022/05/09 05:12:53;;;;;;;15.88;7.57;;;8.30;99.90;;;;;;5042167;28;20021;-72
2022/05/09 05:15:18;;;;;;;13.52;6.57;;;8.40;99.90;;;;;;5041336;28;20061;-72
2022/05/09 05:17:44;;;;;;;14.02;6.22;;;8.40;99.90;;;;;;5040238;28;20032;-72
2022/05/09 05:20:14;;;;;;;14.05;6.57;;;8.50;99.90;;;;;;5041563;28;20025;-72
2022/05/09 05:22:47;;;;;;;19.17;6.97;;;8.60;99.90;;;;;;5021578;28;20021;-72
2022/05/09 05:25:14;;;;;;;22.50;6.65;;;8.60;99.90;;;;;;5037970;28;20029;-73
2022/05/09 05:27:40;;;;;;;21.63;6.68;;;8.70;99.90;;;;;;5037132;28;20436;-72
2022/05/09 05:30:07;;;;;;;14.00;6.57;;;8.90;99.90;;;;;;5037496;28;20033;-74
2022/05/09 05:32:36;;;;;;;17.63;6.53;;;8.90;99.90;;;;;;5037470;28;20033;-73
2022/05/09 05:35:04;;;;;;;17.73;6.53;;;9.00;99.90;;;;;;5039159;28;20133;-73
2022/05/09 05:37:29;;;;;;;21.15;6.78;;;9.10;99.90;;;;;;5037602;28;20071;-73
2022/05/09 05:39:57;;;;;;;14.75;6.25;;;9.20;99.90;;;;;;5036727;28;20025;-74
2022/05/09 05:42:23;;;;;;;15.85;5.93;;;9.30;99.90;;;;;;5037040;28;20021;-74
2022/05/09 05:44:49;;;;;;;20.20;5.50;;;9.40;99.90;;;;;;5037950;28;20167;-73
2022/05/09 05:47:17;;;;;;;14.93;5.82;;;9.50;99.90;;;;;;5040292;28;20100;-73
2022/05/09 05:49:42;;;;;;;18.17;6.03;;;9.60;99.90;;;;;;5019716;28;20040;-73
2022/05/09 05:52:09;;;;;;;11.93;5.88;;;9.70;99.90;;;;;;5036667;28;20033;-73
2022/05/09 05:54:39;;;;;;;12.18;5.72;;;9.80;99.90;;;;;;5035791;28;20120;-73
2022/05/09 05:57:16;;;;;;;19.95;7.07;;;10.00;99.90;;;;;;5036917;28;20373;-74
2022/05/09 05:59:47;;;;;;;17.23;6.00;;;10.10;99.90;;;;;;5038051;28;20029;-73
2022/05/09 06:02:13;;;;;;;19.10;6.57;;;10.20;99.90;;;;;;5019668;28;20131;-73
2022/05/09 06:04:39;;;;;;;18.33;5.80;;;10.30;99.90;;;;;;5019282;28;20022;-74
2022/05/09 06:07:05;;;;;;;16.73;5.60;;;10.40;99.90;;;;;;5037137;28;20030;-74
2022/05/09 06:09:30;;;;;;;14.63;5.88;;;10.50;99.90;;;;;;5019473;28;20509;-73
2022/05/09 06:11:55;;;;;;;17.10;6.57;;;10.60;99.90;;;;;;5037160;28;20092;-73
2022/05/09 06:14:21;;;;;;;14.27;5.40;;;10.70;99.90;;;;;;5037228;28;20482;-73
2022/05/09 06:16:47;;;;;;;12.57;5.38;;;10.80;99.90;;;;;;5036856;28;20509;-73
2022/05/09 06:19:12;;;;;;;14.90;6.03;;;10.90;99.90;;;;;;5019381;28;20017;-73
2022/05/09 06:21:38;;;;;;;10.77;5.13;;;11.10;99.90;;;;;;5036844;28;20111;-73
2022/05/09 06:24:04;;;;;;;11.55;4.80;;;11.20;99.90;;;;;;5037258;28;20029;-74
2022/05/09 06:26:36;;;;;;;13.73;5.45;;;11.30;99.90;;;;;;5037741;28;20048;-73
2022/05/09 06:29:06;;;;;;;12.85;5.03;;;11.50;99.90;;;;;;5038837;28;20025;-73
2022/05/09 06:31:35;;;;;;;8.48;3.83;;;11.60;99.90;;;;;;5038937;28;20116;-73
2022/05/09 06:34:01;;;;;;;11.07;4.03;;;11.70;99.90;;;;;;5051516;28;20030;-73
2022/05/09 06:36:27;;;;;;;11.07;4.20;;;11.80;99.90;;;;;;5049737;28;20425;-74
2022/05/09 06:38:54;;;;;;;18.35;5.40;;;11.90;99.90;;;;;;5038971;28;20097;-73
2022/05/09 06:41:20;;;;;;;12.63;4.55;;;12.00;99.90;;;;;;5041156;28;20068;-74
2022/05/09 06:43:47;;;;;;;14.60;4.55;;;12.10;99.90;;;;;;5039908;28;20486;-74
2022/05/09 06:46:12;;;;;;;13.43;4.28;;;12.20;99.90;;;;;;5038202;28;20018;-73
2022/05/09 06:48:38;;;;;;;16.15;4.85;;;12.40;99.90;;;;;;5022549;28;20027;-74
2022/05/09 06:51:04;;;;;;;13.65;5.25;;;12.50;99.90;;;;;;5041341;28;20096;-73
2022/05/09 06:53:29;;;;;;;14.88;5.60;;;12.60;99.90;;;;;;5041791;28;20487;-73
2022/05/09 06:55:55;;;;;;;13.40;4.88;;;12.70;99.90;;;;;;5044436;28;20053;-72
2022/05/09 06:58:23;;;;;;;15.43;5.07;;;12.80;99.90;;;;;;5049081;28;20033;-72
2022/05/09 07:00:49;;;;;;;15.88;4.75;;;12.90;99.90;;;;;;5047817;28;20017;-73
2022/05/09 07:03:16;;;;;;;10.43;4.47;;;13.00;99.90;;;;;;5044016;28;20021;-73
2022/05/09 07:05:43;;;;;;;15.32;5.13;;;13.10;99.90;;;;;;5041766;28;20156;-73
2022/05/09 07:08:09;;;;;;;13.60;4.95;;;13.20;99.90;;;;;;5040211;28;20479;-73
2022/05/09 07:10:36;;;;;;;17.10;6.00;;;13.30;99.90;;;;;;5025754;28;20037;-75
2022/05/09 07:13:04;;;;;;;14.05;5.15;;;13.50;99.90;;;;;;5042791;28;20038;-74
2022/05/09 07:15:31;;;;;;;12.52;4.68;;;13.60;99.90;;;;;;5041905;28;20053;-73
2022/05/09 07:18:01;;;;;;;14.50;4.82;;;13.70;99.90;;;;;;5042288;28;20021;-73
2022/05/09 07:20:30;;;;;;;9.90;4.40;;;13.80;99.90;;;;;;5043327;28;20029;-73
2022/05/09 07:23:03;;;;;;;9.30;3.67;;;14.00;99.90;;;;;;5042409;28;20410;-74
2022/05/09 07:25:28;;;;;;;9.52;4.18;;;14.10;99.90;;;;;;5041384;28;20089;-73
2022/05/09 07:27:54;;;;;;;21.48;5.20;;;14.20;99.90;;;;;;5042140;28;20124;-73
2022/05/09 07:30:22;;;;;;;15.73;4.28;;;14.40;99.90;;;;;;5043057;28;20018;-73
2022/05/09 07:32:50;;;;;;;10.77;4.22;;;14.50;99.90;;;;;;5024020;28;20364;-74
2022/05/09 07:35:17;;;;;;;13.57;4.15;;;14.50;99.90;;;;;;5024575;28;20035;-74
2022/05/09 07:37:44;;;;;;;9.32;4.43;;;14.70;99.90;;;;;;5025676;28;20469;-73
2022/05/09 07:40:12;;;;;;;13.85;4.03;;;14.80;99.90;;;;;;5025677;28;20022;-73
2022/05/09 07:42:40;;;;;;;13.45;4.20;;;14.90;99.90;;;;;;5024092;28;20040;-74
2022/05/09 07:45:07;;;;;;;10.50;4.13;;;15.10;99.90;;;;;;5043966;28;20043;-74
2022/05/09 07:47:33;;;;;;;13.57;4.13;;;15.20;99.90;;;;;;5024482;28;20107;-74
2022/05/09 07:49:59;;;;;;;10.15;4.25;;;15.30;99.90;;;;;;5022635;28;20029;-72
2022/05/09 07:52:25;;;;;;;15.23;4.80;;;15.40;99.90;;;;;;5040609;28;20513;-73
2022/05/09 07:54:51;;;;;;;13.27;4.13;;;15.60;99.90;;;;;;5039116;28;20124;-73
2022/05/09 07:57:17;;;;;;;14.07;4.10;;;15.70;99.90;;;;;;5038874;28;20021;-73
2022/05/09 07:59:43;;;;;;;11.00;3.88;;;15.80;99.90;;;;;;5038882;28;20025;-74
2022/05/09 08:02:08;;;;;;;17.00;3.78;;;15.90;99.90;;;;;;5041088;28;20028;-72
2022/05/09 08:04:34;;;;;;;11.50;3.47;;;16.10;99.90;;;;;;5039316;28;20133;-73
2022/05/09 08:07:01;;;;;;;10.98;4.07;;;16.20;99.90;;;;;;5039450;28;20041;-73
2022/05/09 08:09:28;;;;;;;10.02;3.45;;;16.30;99.90;;;;;;5038547;28;20018;-73
2022/05/09 08:11:54;;;;;;;13.38;3.55;;;16.40;99.90;;;;;;5038665;28;20478;-72
2022/05/09 08:14:19;;;;;;;8.60;3.42;;;16.60;99.90;;;;;;5037681;28;20101;-73
2022/05/09 08:16:51;;;;;;;9.52;3.03;;;16.70;99.90;;;;;;5037759;28;20383;-72
2022/05/09 08:19:18;;;;;;;10.93;3.60;;;16.80;99.90;;;;;;5037623;28;20490;-72
2022/05/09 08:21:47;;;;;;;10.48;2.95;;;16.90;99.90;;;;;;5037692;28;20028;-71
2022/05/09 08:24:12;;;;;;;12.90;3.60;;;17.00;99.90;;;;;;5037382;28;20018;-72
2022/05/09 08:26:38;;;;;;;7.50;3.33;;;17.10;99.90;;;;;;5038033;28;20025;-72
2022/05/09 08:29:05;;;;;;;10.25;3.13;;;17.20;99.90;;;;;;5023688;28;20088;-72
2022/05/09 08:31:31;;;;;;;12.68;3.35;;;17.30;99.90;;;;;;5038228;28;20022;-73
2022/05/09 08:33:57;;;;;;;10.00;3.15;;;17.40;99.90;;;;;;5038399;28;20021;-72
2022/05/09 08:39:11;;;;;;;7.72;3.13;;;17.70;99.90;;;;;;5030861;28;20044;-73
2022/05/09 08:42:03;;;;;;;11.50;2.67;;;17.80;99.90;;;;;;5018432;28;20499;-75
2022/05/09 08:45:06;;;;;;;11.73;3.10;;;17.90;99.90;;;;;;5017752;28;20022;-73
2022/05/09 08:47:49;;;;;;;14.48;2.97;;;18.00;99.90;;;;;;5017338;28;20026;-72
2022/05/09 08:50:29;;;;;;;12.23;4.20;;;18.20;99.90;;;;;;5017044;28;20434;-72
2022/05/09 08:52:59;;;;;;;15.98;3.28;;;18.20;99.90;;;;;;5017063;28;20433;-74
2022/05/09 08:55:36;;;;;;;13.00;2.83;;;18.30;99.90;;;;;;5016879;28;20060;-73
2022/05/09 08:58:20;;;;;;;9.20;3.10;;;18.40;99.90;;;;;;5016695;28;20029;-73
2022/05/09 09:00:48;;;;;;;12.57;3.10;;;18.40;99.90;;;;;;5022848;28;20056;-72
2022/05/09 09:03:32;;;;;;;8.93;3.13;;;18.50;99.90;;;;;;5036894;28;20032;-72
2022/05/09 09:06:05;;;;;;;11.10;3.58;;;18.50;99.90;;;;;;5016732;28;20033;-73
2022/05/09 09:08:51;;;;;;;14.07;3.63;;;18.50;99.90;;;;;;5016060;28;20030;-72
2022/05/09 09:11:39;;;;;;;15.15;3.47;;;18.40;99.90;;;;;;5015856;28;20037;-73
2022/05/09 09:14:24;;;;;;;8.75;3.15;;;18.50;99.90;;;;;;5032427;28;20087;-73
2022/05/09 09:16:59;;;;;;;9.55;3.30;;;18.60;99.90;;;;;;5017726;28;20030;-73
2022/05/09 09:19:50;;;;;;;10.93;3.58;;;18.70;99.90;;;;;;5021841;28;20036;-73
2022/05/09 09:22:19;;;;;;;;;;;18.80;99.90;;;;;;5013978;28;20067;-73
2022/05/09 09:25:12;;;;;;;13.52;3.10;;;18.90;99.90;;;;;;5020931;28;20347;-74
2022/05/09 09:27:48;;;;;;;9.82;3.08;;;19.10;99.60;;;;;;5016773;28;20361;-73
2022/05/09 09:30:21;;;;;;;18.98;4.13;;;19.10;99.50;;;;;;4999581;28;20545;-73
2022/05/09 09:33:09;;;;;;;10.43;2.55;;;19.20;99.50;;;;;;5017357;28;20026;-72
2022/05/09 09:35:47;;;;;;;13.85;3.38;;;19.20;99.40;;;;;;5016684;28;20053;-74
2022/05/09 09:38:18;;;;;;;9.57;3.05;;;19.30;99.10;;;;;;5016401;28;20022;-72
2022/05/09 09:40:43;;;;;;;7.45;2.85;;;19.40;95.60;;;;;;4998762;28;20026;-73
2022/05/09 09:43:09;;;;;;;9.88;3.10;;;19.50;94.70;;;;;;5035740;28;20022;-73
2022/05/09 09:45:44;;;;;;;6.57;3.33;;;19.60;93.40;;;;;;5040983;28;20497;-76
2022/05/09 09:48:22;;;;;;;6.60;3.05;;;19.80;93.30;;;;;;5018177;28;20036;-75
2022/05/09 09:51:03;;;;;;;12.00;2.60;;;19.80;92.00;;;;;;5011732;28;20033;-75
2022/05/09 09:54:01;;;;;;;11.57;3.15;;;19.90;92.10;;;;;;5027765;28;20033;-73
2022/05/09 09:56:31;;;;;;;5.68;2.50;;;19.90;92.30;;;;;;5024682;28;20037;-73
2022/05/09 09:59:24;;;;;;;7.50;2.25;;;20.00;90.80;;;;;;5027987;28;20017;-73
2022/05/09 10:02:16;;;;;;;4.93;2.45;;;20.20;90.80;;;;;;5026171;28;20040;-73
2022/05/09 10:04:43;;;;;;;10.00;3.08;;;20.30;90.20;;;;;;5023677;28;20086;-73
2022/05/09 10:07:34;;;;;;;6.60;2.75;;;20.40;89.00;;;;;;5030474;28;20037;-71
2022/05/09 10:10:14;;;;;;;9.67;2.70;;;20.40;85.70;;;;;;5024397;28;20044;-73
2022/05/09 10:13:05;;;;;;;9.07;2.58;;;20.40;86.50;;;;;;5025961;28;20022;-71
2022/05/09 10:15:36;;;;;;;8.75;2.42;;;20.40;84.40;;;;;;5010050;28;20471;-73
2022/05/09 10:18:23;;;;;;;8.50;3.03;;;20.30;83.90;;;;;;5024330;28;20025;-72
2022/05/09 10:20:51;;;;;;;13.10;3.28;;;20.30;84.90;;;;;;5016068;28;20501;-72
2022/05/09 10:26:13;;;;;;;7.72;2.63;;;20.30;83.20;;;;;;5026700;28;20037;-72
2022/05/09 10:28:45;;;;;;;7.55;2.78;;;20.40;83.10;;;;;;5026689;28;20133;-72
2022/05/09 10:31:23;;;;;;;6.65;2.80;;;20.40;82.70;;;;;;5034505;28;20383;-73
2022/05/09 10:33:59;;;;;;;7.85;2.78;;;20.50;82.50;;;;;;5026801;28;20029;-72
2022/05/09 10:36:31;;;;;;;8.13;2.50;;;20.60;82.10;;;;;;5026911;28;20061;-73
2022/05/09 10:39:11;;;;;;;7.80;2.58;;;20.70;81.00;;;;;;5023480;28;20021;-72
2022/05/09 10:41:46;;;;;;;7.93;3.70;;;20.80;81.50;;;;;;5020912;28;20101;-73
2022/05/09 10:44:44;;;;;;;9.27;2.80;;;20.80;79.10;;;;;;5006483;28;20033;-73
2022/05/09 10:47:19;;;;;;;8.27;2.65;;;20.90;77.60;;;;;;4961444;28;20039;-73
2022/05/09 10:49:54;;;;;;;10.52;3.10;;;20.90;77.20;;;;;;5013133;28;20029;-73
2022/05/09 10:52:47;;;;;;;7.65;2.28;;;20.80;75.70;;;;;;5029899;28;20029;-73
2022/05/09 10:55:26;;;;;;;9.00;2.80;;;20.80;76.50;;;;;;5026254;28;20031;-73
2022/05/09 10:58:28;;;;;;;8.18;2.90;;;20.80;76.60;;;;;;5035350;28;20025;-73
2022/05/09 11:01:44;;;;;;;12.25;2.45;;;20.90;74.90;;;;;;5027106;28;20100;-73
2022/05/09 11:04:12;;;;;;;11.15;2.97;;;21.10;75.10;;;;;;5015502;28;20034;-73
2022/05/09 11:07:06;;;;;;;8.63;2.95;;;21.10;74.30;;;;;;5027780;28;20029;-73
2022/05/09 11:09:45;;;;;;;4.55;2.00;;;21.10;74.80;;;;;;5022813;28;20030;-73
2022/05/09 11:12:51;;;;;;;8.07;2.42;;;21.20;75.30;;;;;;5029345;28;20112;-73
2022/05/09 11:15:49;;;;;;;9.23;2.50;;;21.30;74.40;;;;;;4955796;29;20039;-74
2022/05/09 11:18:36;;;;;;;13.60;3.03;;;21.40;74.60;;;;;;5016072;28;20014;-73
2022/05/09 11:21:05;;;;;;;6.97;2.78;;;21.60;72.60;;;;;;5032405;28;20025;-72
2022/05/09 11:23:48;;;;;;;8.07;2.53;;;21.60;72.00;;;;;;5026964;28;20026;-73
2022/05/09 11:26:32;;;;;;;4.75;2.30;;;21.70;72.20;;;;;;5014040;28;20025;-73
2022/05/09 11:29:15;;;;;;;6.72;2.50;;;21.70;72.60;;;;;;5029247;28;20021;-73
2022/05/09 11:32:06;;;;;;;9.50;2.25;;;21.80;71.30;;;;;;5027418;28;20047;-73
2022/05/09 11:35:08;;;;;;;7.78;2.97;;;21.80;70.90;;;;;;5031216;28;20069;-74
2022/05/09 11:37:53;;;;;;;4.35;2.38;;;21.90;71.20;;;;;;5031353;28;20021;-73
2022/05/09 11:40:47;;;;;;;6.07;2.10;;;21.90;69.40;;;;;;5034932;28;20076;-73
2022/05/09 11:43:48;;;;;;;9.40;2.50;;;21.90;70.00;;;;;;5034376;28;20026;-73
2022/05/09 11:46:42;;;;;;;11.55;2.20;;;21.90;69.80;;;;;;5025063;28;20550;-72
2022/05/09 11:49:25;;;;;;;8.70;2.65;;;22.00;69.80;;;;;;5046510;28;20037;-73
2022/05/09 11:51:54;;;;;;;7.53;2.47;;;22.00;69.60;;;;;;5025017;28;20026;-73
2022/05/09 11:54:28;;;;;;;4.80;2.60;;;22.10;70.50;;;;;;5024395;28;20117;-73
2022/05/09 11:56:59;;;;;;;8.27;2.65;;;22.20;70.90;;;;;;5031188;28;20100;-75
2022/05/09 11:59:33;;;;;;;5.65;2.25;;;22.30;70.10;;;;;;5031783;28;20075;-73
2022/05/09 12:02:06;;;;;;;8.65;2.97;;;22.30;69.30;;;;;;5040191;28;20399;-74
2022/05/09 12:04:43;;;;;;;6.93;2.58;;;22.30;69.00;;;;;;5037008;28;20036;-72
2022/05/09 12:07:21;;;;;;;10.07;2.40;;;22.40;68.80;;;;;;5036220;28;20048;-72
2022/05/09 12:10:20;;;;;;;6.32;2.47;;;22.40;68.50;;;;;;5038113;28;20033;-73
2022/05/09 12:12:55;;;;;;;5.05;2.50;;;22.50;68.60;;;;;;5019432;28;20542;-73
2022/05/09 12:15:21;;;;;;;5.88;2.20;;;22.50;68.50;;;;;;5032502;28;20036;-72
2022/05/09 12:18:07;;;;;;;7.82;2.40;;;22.60;68.60;;;;;;5026671;28;20579;-73
2022/05/09 12:20:37;;;;;;;6.90;2.50;;;22.70;68.00;;;;;;5027268;28;20029;-73
2022/05/09 12:23:06;;;;;;;9.40;2.67;;;22.60;67.90;;;;;;5037285;28;20044;-73
2022/05/09 12:25:36;;;;;;;4.53;1.77;;;22.60;68.50;;;;;;5037708;28;20025;-73
2022/05/09 12:28:21;;;;;;;4.60;2.00;;;22.60;68.10;;;;;;5038067;28;20028;-72
2022/05/09 12:30:59;;;;;;;6.90;2.35;;;22.70;69.00;;;;;;5032576;28;20048;-73
2022/05/09 12:33:42;;;;;;;4.43;2.17;;;22.70;70.40;;;;;;5033662;28;20048;-73
2022/05/09 12:36:13;;;;;;;8.27;2.10;;;22.90;69.10;;;;;;5033493;28;20046;-73
2022/05/09 12:38:42;;;;;;;6.70;2.47;;;23.00;69.30;;;;;;5033268;28;20033;-72
2022/05/09 12:41:23;;;;;;;5.32;1.77;;;23.00;68.90;;;;;;5028004;28;20022;-73
2022/05/09 12:44:05;;;;;;;;;;;23.10;68.80;;;;;;5024017;28;20018;-73
2022/05/09 12:46:37;;;;;;;7.82;2.40;;;23.00;68.50;;;;;;5030928;28;19909;-74
2022/05/09 12:49:06;;;;;;;8.95;2.70;;;23.10;68.50;;;;;;5026890;28;20021;-73
2022/05/09 12:51:39;;;;;;;7.10;2.10;;;23.10;68.70;;;;;;5009628;28;20573;-73
2022/05/09 12:54:10;;;;;;;5.68;2.33;;;23.20;67.90;;;;;;5027251;28;20060;-73
2022/05/09 12:56:37;;;;;;;7.43;2.45;;;23.20;68.00;;;;;;5029247;28;20033;-73
2022/05/09 12:59:08;;;;;;;5.50;2.13;;;23.20;67.90;;;;;;5013368;28;20029;-72
2022/05/09 13:01:40;;;;;;;6.65;2.08;;;23.20;68.50;;;;;;5028529;28;20036;-72
2022/05/09 13:04:18;;;;;;;3.83;2.00;;;23.10;67.70;;;;;;5029524;28;20038;-72
2022/05/09 13:06:53;;;;;;;7.13;2.38;;;23.10;68.20;;;;;;5029824;28;20026;-72
2022/05/09 13:09:23;;;;;;;5.28;2.03;;;23.10;68.70;;;;;;5030314;28;20033;-72
2022/05/09 13:12:16;;;;;;;5.18;1.80;;;23.10;69.10;;;;;;5027393;28;20514;-73
2022/05/09 13:15:05;;;;;;;7.85;2.17;;;23.20;69.10;;;;;;5008036;28;20044;-73
2022/05/09 13:17:35;;;;;;;10.30;2.50;;;23.20;68.10;;;;;;5029909;28;20112;-73
2022/05/09 13:20:01;;;;;;;7.30;2.35;;;23.20;68.00;;;;;;5026191;28;20103;-73